Time;durP1;ratioP1;P1;durP2;ratioP2;P2;SDS_P1;SDS_P2;PMS_P1;PMS_P2;Temp;Humidity;BMP_temperature;BMP_pressure;BME280_temperature;BME280_humidity;BME280_pressure;Samples;Min_cycle;Max_cycle;Signal;HPM_P1;HPM_P2
2021/01/18 00:00:55;;;;;;;2.17;0.63;;;16.10;45.60;;;;;;5085766;28;20044;-55
2021/01/18 00:03:22;;;;;;;2.22;0.60;;;16.10;45.60;;;;;;5085332;28;20098;-52
2021/01/18 00:05:49;;;;;;;7.13;1.05;;;16.10;45.60;;;;;;5085338;28;20488;-52
2021/01/18 00:08:16;;;;;;;2.42;0.90;;;16.10;45.60;;;;;;5088786;28;20040;-55
2021/01/18 00:10:42;;;;;;;3.03;0.60;;;16.10;45.60;;;;;;5086166;28;20073;-54
2021/01/18 00:13:09;;;;;;;2.67;0.60;;;16.10;45.60;;;;;;5084998;28;20044;-54
2021/01/18 00:15:35;;;;;;;5.35;0.70;;;16.10;45.60;;;;;;5085314;28;20120;-53
2021/01/18 00:18:02;;;;;;;4.28;1.38;;;16.10;45.60;;;;;;5085093;28;20041;-55
2021/01/18 00:20:29;;;;;;;3.53;0.95;;;16.10;45.70;;;;;;5087594;28;20412;-53
2021/01/18 00:22:56;;;;;;;4.25;0.82;;;16.10;45.70;;;;;;5086201;28;20507;-50
2021/01/18 00:25:24;;;;;;;4.70;0.98;;;16.10;45.70;;;;;;5077241;28;20079;-54
2021/01/18 00:27:51;;;;;;;6.07;0.93;;;16.10;45.70;;;;;;5077876;28;20580;-55
2021/01/18 00:30:21;;;;;;;3.38;0.82;;;16.10;45.70;;;;;;5085279;28;20159;-55
2021/01/18 00:32:48;;;;;;;1.63;0.60;;;16.10;45.80;;;;;;5084965;28;20052;-53
2021/01/18 00:35:16;;;;;;;2.28;0.45;;;16.10;46.40;;;;;;5088460;28;20044;-50
2021/01/18 00:37:44;;;;;;;3.22;1.25;;;16.10;45.80;;;;;;5085077;28;20525;-55
2021/01/18 00:40:13;;;;;;;3.83;1.05;;;16.10;45.80;;;;;;5085176;28;20040;-58
2021/01/18 00:42:41;;;;;;;1.80;0.60;;;16.10;45.80;;;;;;5084833;28;20436;-54
2021/01/18 00:45:10;;;;;;;1.63;0.68;;;16.10;45.80;;;;;;5083906;28;20044;-55
2021/01/18 00:47:41;;;;;;;3.40;0.70;;;16.10;45.80;;;;;;5085908;28;20397;-52
2021/01/18 00:50:08;;;;;;;4.15;0.60;;;16.10;45.80;;;;;;5086932;28;20137;-52
2021/01/18 00:52:35;;;;;;;5.55;0.85;;;16.10;45.80;;;;;;5079618;28;20047;-53
2021/01/18 00:55:02;;;;;;;2.40;0.30;;;16.10;45.70;;;;;;5102711;28;20512;-53
2021/01/18 00:57:45;;;;;;;3.38;0.68;;;16.10;46.30;;;;;;5085141;28;20036;-55
2021/01/18 01:00:14;;;;;;;2.05;0.50;;;16.00;45.70;;;;;;5083616;28;20393;-51
2021/01/18 01:02:44;;;;;;;1.05;0.60;;;16.10;45.80;;;;;;5084411;28;20048;-55
2021/01/18 01:05:13;;;;;;;2.00;0.50;;;16.00;45.70;;;;;;5104204;28;20036;-51
2021/01/18 01:07:40;;;;;;;1.23;0.30;;;16.00;45.70;;;;;;5084243;28;20160;-56
2021/01/18 01:10:08;;;;;;;4.70;0.75;;;16.10;45.70;;;;;;5084309;28;20105;-49
2021/01/18 01:12:35;;;;;;;4.15;0.70;;;16.00;45.70;;;;;;5084834;28;20135;-57
2021/01/18 01:15:04;;;;;;;2.92;1.33;;;16.10;45.80;;;;;;5077252;28;20060;-50
2021/01/18 01:17:30;;;;;;;2.00;0.57;;;16.10;45.80;;;;;;5086627;28;20056;-50
2021/01/18 01:19:57;;;;;;;5.72;1.38;;;16.00;45.70;;;;;;5086296;28;20043;-50
2021/01/18 01:22:23;;;;;;;1.25;0.40;;;16.10;45.70;;;;;;5085963;28;20512;-51
2021/01/18 01:24:50;;;;;;;3.80;0.82;;;16.00;45.70;;;;;;5089926;28;20047;-53
2021/01/18 01:27:16;;;;;;;1.48;0.47;;;16.00;45.70;;;;;;5089138;28;20530;-52
2021/01/18 01:29:43;;;;;;;3.58;0.85;;;16.10;45.70;;;;;;5075953;28;20051;-51
2021/01/18 01:32:10;;;;;;;1.52;0.30;;;16.00;45.70;;;;;;5092378;28;20578;-51
2021/01/18 01:34:37;;;;;;;3.47;0.52;;;16.10;45.80;;;;;;5087568;28;20042;-50
2021/01/18 01:37:03;;;;;;;1.23;0.30;;;16.00;45.70;;;;;;5089515;28;20130;-54
2021/01/18 01:39:30;;;;;;;3.55;0.20;;;16.00;45.80;;;;;;5089270;28;20106;-53
2021/01/18 01:41:56;;;;;;;2.30;0.38;;;16.10;45.80;;;;;;5088794;28;20064;-49
2021/01/18 01:44:23;;;;;;;2.67;0.45;;;16.10;45.80;;;;;;5090775;28;20132;-51
2021/01/18 01:46:49;;;;;;;2.10;0.30;;;16.00;45.70;;;;;;5089454;28;20048;-55
2021/01/18 01:49:17;;;;;;;1.70;0.30;;;16.00;45.70;;;;;;5087466;28;20393;-49
2021/01/18 01:51:44;;;;;;;2.55;0.28;;;16.00;45.80;;;;;;5088164;28;20510;-54
2021/01/18 01:54:10;;;;;;;3.03;0.65;;;16.00;45.70;;;;;;5088014;28;20532;-53
2021/01/18 01:56:38;;;;;;;1.98;0.30;;;16.00;45.70;;;;;;5089809;28;20044;-53
2021/01/18 01:59:05;;;;;;;2.05;0.60;;;16.10;45.80;;;;;;5091566;28;20047;-49
2021/01/18 02:01:32;;;;;;;3.92;0.70;;;16.00;45.70;;;;;;5087031;28;20475;-50
2021/01/18 02:03:59;;;;;;;2.30;0.47;;;16.10;45.80;;;;;;5089642;28;20106;-55
2021/01/18 02:06:26;;;;;;;3.00;0.52;;;16.00;45.80;;;;;;5089763;28;20411;-50
2021/01/18 02:08:53;;;;;;;2.00;0.40;;;16.00;45.70;;;;;;5088427;28;20100;-54
2021/01/18 02:11:19;;;;;;;0.88;0.30;;;16.00;45.70;;;;;;5091064;28;20305;-53
2021/01/18 02:14:02;;;;;;;5.47;0.60;;;16.00;45.70;;;;;;5089378;28;20056;-54
2021/01/18 02:16:33;;;;;;;0.50;0.22;;;16.00;45.70;;;;;;5088285;28;20041;-54
2021/01/18 02:19:19;;;;;;;6.63;0.55;;;16.00;45.80;;;;;;5087649;28;20043;-52
2021/01/18 02:25:09;;;;;;;1.65;0.30;;;16.00;45.70;;;;;;5100257;27;20873;-51
2021/01/18 02:28:14;;;;;;;4.35;0.73;;;16.00;45.80;;;;;;5082537;28;20055;-52
2021/01/18 02:31:16;;;;;;;2.15;0.32;;;16.00;45.90;;;;;;5081939;28;20045;-53
2021/01/18 02:34:26;;;;;;;1.77;0.40;;;16.00;45.80;;;;;;5064481;28;20051;-50
2021/01/18 02:37:16;;;;;;;2.88;0.40;;;16.00;45.90;;;;;;5082286;28;20052;-51
2021/01/18 02:39:50;;;;;;;1.88;0.50;;;16.00;45.90;;;;;;5082216;28;20079;-52
2021/01/18 02:42:23;;;;;;;0.77;0.17;;;15.90;45.90;;;;;;5081971;28;20213;-53
2021/01/18 02:44:54;;;;;;;3.67;0.25;;;15.90;45.90;;;;;;5065587;28;20060;-52
2021/01/18 02:47:23;;;;;;;2.63;1.00;;;15.90;46.00;;;;;;5084333;28;20117;-52
2021/01/18 02:49:52;;;;;;;3.80;0.38;;;16.00;46.10;;;;;;5085073;28;20180;-53
2021/01/18 02:52:19;;;;;;;4.15;0.20;;;16.00;46.00;;;;;;5081869;28;20048;-54
2021/01/18 02:54:46;;;;;;;1.35;0.28;;;15.90;46.00;;;;;;5081930;28;20110;-59
2021/01/18 02:57:14;;;;;;;1.10;0.28;;;16.00;46.00;;;;;;5080633;28;20044;-53
2021/01/18 02:59:42;;;;;;;1.08;0.30;;;16.00;46.00;;;;;;5083582;28;20048;-53
2021/01/18 03:02:20;;;;;;;3.20;0.22;;;16.00;45.90;;;;;;5085536;28;20048;-55
2021/01/18 03:04:59;;;;;;;1.85;0.20;;;16.00;45.90;;;;;;5084035;28;20068;-54
2021/01/18 03:07:35;;;;;;;2.33;0.30;;;16.00;45.90;;;;;;5082167;28;20504;-55
2021/01/18 03:10:05;;;;;;;1.52;0.40;;;16.00;45.90;;;;;;5076933;28;20072;-56
2021/01/18 03:12:39;;;;;;;3.13;0.30;;;16.00;45.80;;;;;;5078921;28;20052;-52
2021/01/18 03:15:11;;;;;;;4.20;0.88;;;16.00;45.90;;;;;;5075410;28;20161;-58
2021/01/18 03:17:40;;;;;;;4.25;0.40;;;15.90;45.80;;;;;;5079103;28;20098;-55
2021/01/18 03:20:08;;;;;;;1.42;0.10;;;15.90;45.70;;;;;;5074120;28;20052;-53
2021/01/18 03:22:37;;;;;;;3.70;0.20;;;16.00;45.80;;;;;;5078422;28;20044;-56
2021/01/18 03:25:05;;;;;;;4.03;0.70;;;15.90;45.70;;;;;;5076682;28;20684;-55
2021/01/18 03:27:51;;;;;;;2.75;0.20;;;16.00;45.80;;;;;;5080140;28;20564;-53
2021/01/18 03:30:20;;;;;;;4.30;0.90;;;16.00;45.70;;;;;;5079527;28;20073;-56
2021/01/18 03:32:50;;;;;;;2.60;0.20;;;15.90;45.70;;;;;;5094063;28;20131;-57
2021/01/18 03:35:17;;;;;;;1.02;0.28;;;15.90;45.70;;;;;;5060787;28;20057;-52
2021/01/18 03:37:51;;;;;;;2.85;0.45;;;16.00;45.70;;;;;;5066654;28;20119;-52
2021/01/18 03:40:17;;;;;;;0.85;0.20;;;15.90;45.60;;;;;;5067484;28;20049;-55
2021/01/18 03:42:44;;;;;;;3.45;0.10;;;16.00;45.70;;;;;;5066956;28;20066;-53
2021/01/18 03:45:11;;;;;;;2.13;0.25;;;15.90;45.60;;;;;;5066810;28;20412;-54
2021/01/18 03:47:38;;;;;;;4.47;0.22;;;15.90;45.60;;;;;;5068291;28;20051;-54
2021/01/18 03:50:05;;;;;;;0.85;0.35;;;15.90;45.60;;;;;;5070435;28;20055;-54
2021/01/18 03:52:31;;;;;;;4.45;0.17;;;15.90;45.60;;;;;;5067228;28;20066;-57
2021/01/18 03:55:00;;;;;;;1.50;0.20;;;15.90;45.60;;;;;;5068812;28;20090;-53
2021/01/18 03:57:26;;;;;;;1.17;0.30;;;16.00;45.70;;;;;;5065334;28;20056;-55
2021/01/18 03:59:53;;;;;;;3.03;0.25;;;15.90;45.70;;;;;;5053095;28;20056;-49
2021/01/18 04:02:19;;;;;;;3.03;0.40;;;15.90;45.60;;;;;;5061641;28;20049;-55
2021/01/18 04:04:46;;;;;;;3.15;0.10;;;15.90;45.60;;;;;;5068569;28;20072;-51
2021/01/18 04:07:13;;;;;;;2.15;0.28;;;15.90;45.70;;;;;;5066451;28;20556;-54
2021/01/18 04:09:39;;;;;;;2.38;0.10;;;15.90;45.60;;;;;;5066762;28;20397;-53
2021/01/18 04:12:07;;;;;;;5.00;0.43;;;15.90;45.60;;;;;;5055186;28;20210;-52
2021/01/18 04:14:34;;;;;;;1.73;0.20;;;15.90;45.60;;;;;;5067178;28;20052;-55
2021/01/18 04:17:01;;;;;;;1.67;0.20;;;15.90;45.60;;;;;;5069214;28;20045;-55
2021/01/18 04:19:28;;;;;;;1.65;0.10;;;15.90;45.60;;;;;;5066037;28;20067;-54
2021/01/18 04:21:54;;;;;;;1.55;0.10;;;15.90;45.70;;;;;;5065696;28;20076;-56
2021/01/18 04:24:21;;;;;;;2.92;0.45;;;15.90;45.60;;;;;;5065510;28;20470;-53
2021/01/18 04:26:47;;;;;;;5.28;0.28;;;15.90;45.60;;;;;;5067453;28;20471;-54
2021/01/18 04:29:15;;;;;;;1.75;0.73;;;15.90;45.60;;;;;;5052608;28;20041;-52
2021/01/18 04:31:42;;;;;;;2.58;0.13;;;15.90;45.60;;;;;;5065534;28;20623;-54
2021/01/18 04:34:09;;;;;;;1.02;0.10;;;15.90;45.50;;;;;;5065285;28;20044;-53
2021/01/18 04:36:38;;;;;;;6.88;0.40;;;15.90;45.50;;;;;;5065931;28;20052;-52
2021/01/18 04:39:06;;;;;;;2.53;0.10;;;15.90;45.60;;;;;;5066587;28;20564;-52
2021/01/18 04:41:35;;;;;;;0.70;0.10;;;15.90;45.60;;;;;;5067408;28;20119;-56
2021/01/18 04:44:06;;;;;;;7.18;0.40;;;15.90;45.50;;;;;;5069360;28;20036;-54
2021/01/18 04:46:38;;;;;;;1.27;0.08;;;15.90;45.50;;;;;;5065575;28;20048;-53
2021/01/18 04:49:05;;;;;;;3.17;0.20;;;15.90;45.50;;;;;;5066257;28;20599;-56
2021/01/18 04:51:40;;;;;;;4.55;0.10;;;15.90;45.50;;;;;;5064750;28;20051;-52
2021/01/18 04:54:12;;;;;;;3.55;0.20;;;15.90;45.50;;;;;;5066117;28;20049;-53
2021/01/18 04:56:56;;;;;;;1.02;0.10;;;15.90;46.10;;;;;;5067019;28;20104;-51
2021/01/18 04:59:28;;;;;;;0.98;0.20;;;15.90;45.50;;;;;;5065656;28;20052;-51
2021/01/18 05:02:07;;;;;;;3.35;0.20;;;15.90;45.50;;;;;;5068725;28;20079;-54
2021/01/18 05:04:39;;;;;;;1.52;0.20;;;15.90;45.40;;;;;;5065849;28;20060;-52
2021/01/18 05:07:55;;;;;;;0.93;0.10;;;15.90;45.50;;;;;;5065174;28;20044;-54
2021/01/18 05:10:27;;;;;;;2.58;0.20;;;15.90;45.50;;;;;;5064075;28;20045;-52
2021/01/18 05:13:00;;;;;;;3.20;0.20;;;15.90;45.60;;;;;;5067149;28;20048;-55
2021/01/18 05:15:27;;;;;;;1.67;0.20;;;15.90;45.60;;;;;;5065517;28;20052;-53
2021/01/18 05:18:05;;;;;;;3.47;0.20;;;15.80;45.60;;;;;;5065627;28;20033;-54
2021/01/18 05:20:32;;;;;;;0.20;0.10;;;15.80;45.50;;;;;;5051474;28;20055;-49
2021/01/18 05:22:59;;;;;;;3.90;0.20;;;15.80;45.50;;;;;;5067693;28;20136;-52
2021/01/18 05:25:25;;;;;;;1.67;0.20;;;15.90;45.50;;;;;;5065795;28;20102;-50
2021/01/18 05:28:03;;;;;;;0.93;0.10;;;15.90;45.50;;;;;;5064967;28;20120;-53
2021/01/18 05:30:31;;;;;;;1.38;0.10;;;15.90;45.50;;;;;;5065426;28;20517;-53
2021/01/18 05:33:04;;;;;;;1.98;0.32;;;15.80;45.50;;;;;;5065714;28;20047;-51
2021/01/18 05:35:31;;;;;;;1.08;0.08;;;15.90;45.50;;;;;;5067771;28;20048;-53
2021/01/18 05:38:10;;;;;;;4.25;0.20;;;15.80;45.50;;;;;;5053118;28;20045;-48
2021/01/18 05:40:40;;;;;;;1.65;0.10;;;15.90;45.60;;;;;;5063749;28;20083;-55
2021/01/18 05:43:06;;;;;;;0.28;0.10;;;15.80;45.50;;;;;;5064734;28;20076;-57
2021/01/18 05:45:35;;;;;;;2.75;0.70;;;15.80;46.10;;;;;;5064723;28;20762;-51
2021/01/18 05:48:04;;;;;;;2.03;0.35;;;15.80;45.50;;;;;;5064050;28;20107;-56
2021/01/18 05:50:32;;;;;;;1.85;0.30;;;15.80;45.50;;;;;;5064561;28;20080;-54
2021/01/18 05:52:59;;;;;;;1.10;0.10;;;15.80;45.50;;;;;;5066609;28;20583;-55
2021/01/18 05:55:27;;;;;;;2.75;0.20;;;15.80;45.50;;;;;;5064506;28;20083;-53
2021/01/18 05:57:58;;;;;;;2.75;0.05;;;15.80;45.50;;;;;;5065108;28;20041;-55
2021/01/18 06:00:33;;;;;;;2.05;0.10;;;15.80;45.50;;;;;;5064774;28;20527;-54
2021/01/18 06:03:05;;;;;;;2.47;0.28;;;15.80;45.50;;;;;;5065304;28;20048;-54
2021/01/18 06:05:33;;;;;;;2.63;0.20;;;15.80;45.50;;;;;;5067514;28;20057;-54
2021/01/18 06:08:10;;;;;;;4.03;0.40;;;15.80;45.50;;;;;;5067374;28;20796;-53
2021/01/18 06:10:37;;;;;;;2.60;0.10;;;15.80;45.50;;;;;;5064643;28;20052;-53
2021/01/18 06:13:04;;;;;;;1.50;0.10;;;15.80;45.50;;;;;;5065054;28;20101;-50
2021/01/18 06:15:31;;;;;;;2.42;0.25;;;15.80;45.50;;;;;;5066216;28;20048;-53
2021/01/18 06:17:58;;;;;;;1.63;0.17;;;15.80;45.50;;;;;;5065097;28;20696;-54
2021/01/18 06:20:27;;;;;;;2.05;0.05;;;15.80;45.50;;;;;;5067061;28;20060;-54
2021/01/18 06:22:58;;;;;;;3.50;0.10;;;15.80;45.60;;;;;;5066470;28;20055;-54
2021/01/18 06:25:32;;;;;;;0.60;0.10;;;15.80;45.60;;;;;;5064613;28;20092;-50
2021/01/18 06:27:59;;;;;;;2.55;0.17;;;15.80;45.60;;;;;;5065874;28;20044;-53
2021/01/18 06:30:38;;;;;;;4.75;0.50;;;15.80;45.70;;;;;;5055997;28;20129;-52
2021/01/18 06:33:12;;;;;;;0.57;0.10;;;15.80;46.30;;;;;;5066439;28;20509;-54
2021/01/18 06:35:43;;;;;;;3.97;0.10;;;15.80;45.60;;;;;;5065953;28;20052;-52
2021/01/18 06:38:09;;;;;;;2.00;0.10;;;15.80;45.60;;;;;;5068318;28;20049;-54
2021/01/18 06:40:37;;;;;;;2.67;0.10;;;15.80;45.60;;;;;;5064318;28;20450;-54
2021/01/18 06:43:06;;;;;;;2.58;0.35;;;15.80;45.70;;;;;;5064648;28;20049;-52
2021/01/18 06:45:36;;;;;;;3.28;0.10;;;15.80;45.60;;;;;;5065118;28;20139;-52
2021/01/18 06:48:05;;;;;;;1.40;0.10;;;15.80;45.60;;;;;;5064003;28;20540;-53
2021/01/18 06:50:35;;;;;;;1.65;0.10;;;15.80;45.60;;;;;;5065644;28;20044;-50
2021/01/18 06:53:15;;;;;;;1.90;0.20;;;15.80;45.50;;;;;;5066648;28;20090;-51
2021/01/18 06:56:11;;;;;;;2.17;0.20;;;15.90;45.60;;;;;;5054941;28;20103;-50
2021/01/18 06:58:52;;;;;;;5.20;0.10;;;15.80;45.60;;;;;;4966170;28;20074;-50
2021/01/18 07:01:29;;;;;;;0.63;0.10;;;15.80;45.60;;;;;;4981255;28;20050;-50
2021/01/18 07:04:06;;;;;;;2.00;0.10;;;15.80;45.60;;;;;;4982937;28;20068;-51
2021/01/18 07:06:36;;;;;;;2.72;0.10;;;15.80;45.60;;;;;;4983939;28;20085;-50
2021/01/18 07:09:07;;;;;;;2.60;0.10;;;15.80;45.60;;;;;;4981556;28;20043;-52
2021/01/18 07:11:34;;;;;;;2.72;0.13;;;15.80;45.60;;;;;;4987680;28;20650;-52
2021/01/18 07:14:04;;;;;;;1.98;0.10;;;15.80;45.60;;;;;;4988191;28;20137;-54
2021/01/18 07:16:32;;;;;;;3.60;0.20;;;15.80;45.60;;;;;;4987102;28;20047;-56
2021/01/18 07:19:00;;;;;;;1.67;0.25;;;15.80;45.60;;;;;;4986399;28;20042;-55
2021/01/18 07:21:29;;;;;;;2.70;0.50;;;15.80;45.60;;;;;;4985932;28;20614;-54
2021/01/18 07:23:58;;;;;;;1.33;0.10;;;15.80;45.60;;;;;;4985775;28;20085;-56
2021/01/18 07:26:56;;;;;;;2.35;0.10;;;15.80;45.60;;;;;;4988710;28;20485;-55
2021/01/18 07:29:24;;;;;;;1.50;0.20;;;15.90;45.60;;;;;;4986242;28;20515;-53
2021/01/18 07:31:54;;;;;;;1.90;0.32;;;15.80;45.60;;;;;;4986577;28;20911;-58
2021/01/18 07:34:22;;;;;;;2.45;0.57;;;15.80;45.60;;;;;;4972290;28;20047;-53
2021/01/18 07:36:49;;;;;;;2.08;0.25;;;15.80;45.60;;;;;;5060276;28;20060;-53
2021/01/18 07:39:26;;;;;;;2.67;0.60;;;15.80;45.60;;;;;;5067353;28;20508;-51
2021/01/18 07:41:53;;;;;;;1.52;0.20;;;15.80;45.60;;;;;;5052688;28;20049;-57
2021/01/18 07:44:36;;;;;;;0.80;0.10;;;15.80;45.60;;;;;;5069952;28;20516;-51
2021/01/18 07:47:10;;;;;;;6.07;0.10;;;15.80;45.70;;;;;;5070634;28;20059;-53
2021/01/18 07:49:47;;;;;;;5.03;0.47;;;15.80;45.70;;;;;;5067320;28;20416;-53
2021/01/18 07:52:35;;;;;;;1.60;0.20;;;15.80;45.70;;;;;;5063334;28;20646;-52
2021/01/18 07:55:03;;;;;;;4.63;0.55;;;15.90;45.60;;;;;;5066935;28;20051;-52
2021/01/18 07:57:39;;;;;;;1.83;0.10;;;15.80;45.60;;;;;;5066604;28;20619;-54
2021/01/18 08:00:28;;;;;;;4.35;0.35;;;15.80;45.60;;;;;;5066398;28;20166;-56
2021/01/18 08:03:23;;;;;;;1.70;0.52;;;15.80;45.60;;;;;;5055968;28;20065;-55
2021/01/18 08:06:13;;;;;;;2.70;1.27;;;15.80;45.50;;;;;;5061923;28;20089;-52
2021/01/18 08:08:40;;;;;;;2.78;0.20;;;15.80;45.60;;;;;;5068710;28;20055;-53
2021/01/18 08:11:18;;;;;;;2.60;0.20;;;15.80;45.60;;;;;;5071529;28;20052;-53
2021/01/18 08:13:59;;;;;;;6.85;0.57;;;15.80;45.50;;;;;;5067870;28;20097;-52
2021/01/18 08:16:41;;;;;;;1.55;0.10;;;15.80;45.50;;;;;;5066939;28;20484;-54
2021/01/18 08:19:18;;;;;;;2.60;0.40;;;15.80;45.60;;;;;;5065478;28;20483;-53
2021/01/18 08:21:58;;;;;;;2.67;0.75;;;15.80;45.60;;;;;;5066446;28;20047;-53
2021/01/18 08:24:55;;;;;;;5.05;0.47;;;15.80;45.60;;;;;;5067530;28;20060;-52
2021/01/18 08:27:46;;;;;;;3.15;0.20;;;15.80;45.60;;;;;;5066724;28;20049;-53
2021/01/18 08:30:28;;;;;;;1.85;0.32;;;15.80;45.60;;;;;;5067156;28;20421;-54
2021/01/18 08:32:59;;;;;;;2.55;0.20;;;15.80;45.60;;;;;;5050737;28;20127;-51
2021/01/18 08:35:50;;;;;;;7.22;0.80;;;15.80;45.60;;;;;;5069143;28;20048;-54
2021/01/18 08:38:25;;;;;;;7.35;0.50;;;15.80;45.60;;;;;;5060333;28;20589;-54
2021/01/18 08:41:00;;;;;;;2.23;0.50;;;15.80;45.60;;;;;;5067585;28;20048;-51
2021/01/18 08:43:45;;;;;;;3.42;0.15;;;15.80;45.60;;;;;;5066238;28;20318;-54
2021/01/18 08:46:31;;;;;;;1.30;0.22;;;15.80;45.60;;;;;;5058649;28;20045;-52
2021/01/18 08:49:20;;;;;;;0.88;0.17;;;15.80;45.60;;;;;;5061679;28;20056;-54
2021/01/18 08:51:50;;;;;;;2.10;0.45;;;15.80;45.60;;;;;;5067298;28;20049;-54
2021/01/18 08:54:31;;;;;;;1.42;0.15;;;15.80;45.70;;;;;;5066030;28;20119;-50
2021/01/18 08:57:22;;;;;;;4.07;0.40;;;15.80;45.60;;;;;;5051947;28;20037;-51
2021/01/18 09:00:00;;;;;;;2.40;0.30;;;15.80;45.70;;;;;;5050862;28;20471;-49
2021/01/18 09:02:28;;;;;;;3.55;0.30;;;15.80;45.70;;;;;;5068596;28;20170;-55
2021/01/18 09:04:55;;;;;;;3.50;0.73;;;15.80;45.70;;;;;;5069275;28;20049;-52
2021/01/18 09:07:21;;;;;;;4.88;0.57;;;15.80;45.70;;;;;;5065679;28;20055;-54
2021/01/18 09:09:49;;;;;;;2.42;0.20;;;15.80;45.70;;;;;;5065144;28;20036;-56
2021/01/18 09:12:17;;;;;;;2.75;0.50;;;15.80;45.70;;;;;;5066091;28;20055;-51
2021/01/18 09:15:05;;;;;;;3.30;0.43;;;15.80;45.60;;;;;;5050455;28;20044;-53
2021/01/18 09:17:34;;;;;;;4.05;0.17;;;15.90;45.70;;;;;;5065345;28;20048;-49
2021/01/18 09:20:04;;;;;;;2.67;0.20;;;15.80;45.60;;;;;;5068168;28;20036;-54
2021/01/18 09:22:32;;;;;;;3.10;0.30;;;15.80;45.70;;;;;;5065130;28;20071;-53
2021/01/18 09:24:58;;;;;;;6.07;0.68;;;15.90;45.70;;;;;;5062558;28;20781;-55
2021/01/18 09:27:26;;;;;;;2.92;0.50;;;15.90;45.60;;;;;;5065224;28;20048;-53
2021/01/18 09:30:00;;;;;;;1.70;0.82;;;15.80;45.60;;;;;;5067116;28;20063;-53
2021/01/18 09:32:27;;;;;;;3.75;1.00;;;15.90;45.60;;;;;;5065518;28;20183;-54
2021/01/18 09:35:09;;;;;;;1.98;0.30;;;15.90;45.60;;;;;;5067269;28;20064;-53
2021/01/18 09:37:40;;;;;;;5.30;0.65;;;15.90;45.70;;;;;;5061519;28;20185;-54
2021/01/18 09:40:08;;;;;;;9.02;0.70;;;15.90;45.70;;;;;;5066588;28;20052;-50
2021/01/18 09:42:36;;;;;;;1.33;0.30;;;15.90;45.70;;;;;;5064411;28;20423;-52
2021/01/18 09:45:04;;;;;;;3.63;0.30;;;15.90;46.30;;;;;;5065952;28;20044;-49
2021/01/18 09:47:35;;;;;;;4.63;1.00;;;15.90;45.70;;;;;;5065658;28;20044;-56
2021/01/18 09:50:10;;;;;;;3.05;0.20;;;15.90;45.70;;;;;;5066752;28;20091;-57
2021/01/18 09:52:39;;;;;;;5.25;1.27;;;15.90;45.80;;;;;;5065426;28;20052;-54
2021/01/18 09:55:20;;;;;;;1.83;0.22;;;15.90;45.80;;;;;;5063239;28;20083;-55
2021/01/18 09:57:54;;;;;;;5.32;0.40;;;15.90;45.70;;;;;;5065160;28;20128;-55
2021/01/18 10:00:22;;;;;;;7.10;0.73;;;15.90;45.80;;;;;;5063050;28;20056;-53
2021/01/18 10:02:54;;;;;;;4.53;1.08;;;15.90;45.70;;;;;;5064028;28;20041;-55
2021/01/18 10:05:33;;;;;;;3.83;0.60;;;15.90;45.80;;;;;;5067953;28;20052;-56
2021/01/18 10:08:10;;;;;;;2.25;0.32;;;15.90;45.80;;;;;;5068348;28;20849;-54
2021/01/18 10:10:45;;;;;;;4.50;0.30;;;15.90;45.80;;;;;;5065101;28;20532;-54
2021/01/18 10:13:17;;;;;;;5.40;0.60;;;15.90;45.80;;;;;;5063975;28;20705;-54
2021/01/18 10:15:48;;;;;;;4.47;0.80;;;15.90;46.30;;;;;;5065919;28;20068;-57
2021/01/18 10:18:32;;;;;;;3.92;0.50;;;16.00;45.80;;;;;;5065103;28;20059;-52
2021/01/18 10:21:03;;;;;;;4.50;0.90;;;16.00;45.80;;;;;;5058256;28;20448;-54
2021/01/18 10:23:31;;;;;;;5.72;1.10;;;16.00;45.80;;;;;;5063158;28;20695;-52
2021/01/18 10:26:20;;;;;;;4.13;0.43;;;16.00;45.80;;;;;;5066481;28;20591;-56
2021/01/18 10:28:58;;;;;;;1.95;0.20;;;16.00;45.80;;;;;;5065951;28;20052;-57
2021/01/18 10:31:27;;;;;;;3.45;0.47;;;16.00;45.80;;;;;;5066022;28;20044;-55
2021/01/18 10:34:15;;;;;;;2.97;0.32;;;16.00;45.80;;;;;;5064086;28;20048;-54
2021/01/18 10:36:45;;;;;;;6.53;1.27;;;16.00;45.80;;;;;;5064741;28;20045;-54
2021/01/18 10:39:26;;;;;;;1.27;0.20;;;16.00;45.80;;;;;;5065653;28;20052;-52
2021/01/18 10:41:54;;;;;;;4.15;0.57;;;16.00;45.90;;;;;;5050008;28;20060;-53
2021/01/18 10:44:21;;;;;;;2.70;0.60;;;16.00;45.80;;;;;;5068050;28;20706;-52
2021/01/18 10:46:52;;;;;;;1.90;0.65;;;16.10;45.90;;;;;;5070950;28;20048;-54
2021/01/18 10:49:28;;;;;;;4.63;0.10;;;16.10;45.90;;;;;;5069985;28;20044;-50
2021/01/18 10:52:04;;;;;;;2.60;0.80;;;16.10;45.90;;;;;;5070156;28;20047;-51
2021/01/18 10:54:31;;;;;;;3.30;0.35;;;16.10;45.90;;;;;;5068792;28;20056;-54
2021/01/18 10:57:22;;;;;;;5.05;0.52;;;16.10;45.80;;;;;;5067655;28;20513;-52
2021/01/18 11:00:04;;;;;;;3.90;1.05;;;16.10;45.90;;;;;;5060439;28;20103;-51
2021/01/18 11:02:32;;;;;;;2.88;0.10;;;16.10;45.90;;;;;;5070784;28;20102;-54
2021/01/18 11:05:07;;;;;;;1.88;0.17;;;16.10;45.90;;;;;;5070797;28;20045;-56
2021/01/18 11:07:38;;;;;;;0.47;0.20;;;16.10;46.60;;;;;;5065589;28;20467;-59
2021/01/18 11:10:06;;;;;;;2.20;0.20;;;16.10;46.10;;;;;;5063727;28;20127;-52
2021/01/18 11:12:33;;;;;;;3.33;0.85;;;16.10;46.20;;;;;;5065043;28;20086;-55
2021/01/18 11:15:00;;;;;;;2.45;0.20;;;16.10;46.20;;;;;;5068022;28;20076;-51
2021/01/18 11:17:28;;;;;;;2.58;0.40;;;16.10;46.30;;;;;;5069342;28;20052;-51
2021/01/18 11:19:55;;;;;;;5.30;0.50;;;16.10;46.40;;;;;;5069398;28;20050;-56
2021/01/18 11:22:22;;;;;;;4.25;0.50;;;16.10;47.00;;;;;;5055388;28;20069;-52
2021/01/18 11:24:50;;;;;;;5.28;1.02;;;16.20;46.50;;;;;;5063624;28;20447;-52
2021/01/18 11:27:18;;;;;;;5.00;0.30;;;16.10;46.40;;;;;;5068762;28;20048;-51
2021/01/18 11:29:45;;;;;;;5.78;0.50;;;16.20;46.40;;;;;;5067169;28;20072;-54
2021/01/18 11:32:12;;;;;;;1.60;0.63;;;16.20;46.80;;;;;;5071625;28;20048;-51
2021/01/18 11:34:38;;;;;;;1.95;0.10;;;16.20;46.20;;;;;;5067171;28;20515;-51
2021/01/18 11:37:11;;;;;;;7.97;0.52;;;16.20;46.20;;;;;;5068189;28;20045;-54
2021/01/18 11:39:38;;;;;;;5.55;0.95;;;16.20;46.20;;;;;;5066682;28;20466;-53
2021/01/18 11:42:07;;;;;;;3.47;0.20;;;16.20;46.20;;;;;;5059444;28;20059;-55
2021/01/18 11:44:34;;;;;;;5.03;0.25;;;16.20;46.20;;;;;;5067911;28;20186;-50
2021/01/18 11:47:03;;;;;;;3.45;0.30;;;16.20;46.10;;;;;;5071166;28;20465;-55
2021/01/18 11:49:30;;;;;;;5.50;0.52;;;16.20;46.00;;;;;;5067396;28;20060;-54
2021/01/18 11:51:58;;;;;;;1.80;0.28;;;16.20;46.00;;;;;;5066287;28;20057;-55
2021/01/18 11:54:25;;;;;;;4.25;0.75;;;16.20;45.90;;;;;;5067688;28;20115;-54
2021/01/18 11:56:52;;;;;;;1.30;0.20;;;16.30;45.90;;;;;;5065578;28;20593;-55
2021/01/18 11:59:19;;;;;;;1.20;0.75;;;16.30;45.90;;;;;;5070264;28;20045;-55
2021/01/18 12:01:46;;;;;;;4.93;1.02;;;16.30;45.90;;;;;;5069088;28;20048;-54
2021/01/18 12:04:13;;;;;;;2.47;0.22;;;16.30;45.90;;;;;;5066807;28;20546;-54
2021/01/18 12:06:41;;;;;;;2.67;0.38;;;16.30;45.90;;;;;;5067996;28;20052;-52
2021/01/18 12:09:08;;;;;;;3.38;0.68;;;16.30;46.20;;;;;;5057719;28;20045;-55
2021/01/18 12:11:37;;;;;;;6.00;0.20;;;16.30;46.50;;;;;;5056280;28;20132;-57
2021/01/18 12:14:03;;;;;;;2.63;0.30;;;16.30;46.80;;;;;;5058863;28;20041;-58
2021/01/18 12:16:31;;;;;;;3.25;0.30;;;16.30;46.00;;;;;;5056372;28;20052;-60
2021/01/18 12:18:57;;;;;;;2.75;0.30;;;16.30;45.10;;;;;;5058262;28;20045;-57
2021/01/18 12:21:24;;;;;;;3.80;0.32;;;16.40;45.10;;;;;;5053648;28;20070;-54
2021/01/18 12:23:51;;;;;;;16.85;0.13;;;16.40;45.50;;;;;;5060016;28;20049;-53
2021/01/18 12:26:18;;;;;;;5.68;0.43;;;16.40;45.70;;;;;;5060375;28;20504;-47
2021/01/18 12:28:45;;;;;;;7.25;0.50;;;16.40;45.10;;;;;;5065118;28;20056;-51
2021/01/18 12:31:13;;;;;;;4.15;0.10;;;16.40;44.20;;;;;;5058137;28;20080;-55
2021/01/18 12:33:40;;;;;;;7.10;0.45;;;16.50;43.70;;;;;;5058169;28;20059;-55
2021/01/18 12:36:08;;;;;;;5.80;0.20;;;16.50;43.40;;;;;;5064004;28;20093;-55
2021/01/18 12:38:35;;;;;;;4.97;0.25;;;16.50;43.30;;;;;;5054472;28;20509;-56
2021/01/18 12:41:01;;;;;;;5.78;0.47;;;16.50;43.60;;;;;;5054891;28;20059;-52
2021/01/18 12:43:28;;;;;;;4.25;0.38;;;16.50;44.10;;;;;;5056346;28;20040;-55
2021/01/18 12:45:56;;;;;;;7.38;0.55;;;16.50;44.30;;;;;;5057027;28;20032;-55
2021/01/18 12:48:22;;;;;;;8.40;0.60;;;16.50;45.00;;;;;;5056701;28;20059;-56
2021/01/18 12:50:50;;;;;;;8.57;0.30;;;16.50;45.90;;;;;;5048967;28;20077;-51
2021/01/18 12:55:58;;;;;;;8.13;0.50;;;16.50;46.90;;;;;;5060781;28;20040;-53
2021/01/18 12:58:25;;;;;;;3.25;0.30;;;16.50;47.30;;;;;;5053278;28;20083;-54
2021/01/18 13:00:52;;;;;;;7.80;0.40;;;16.50;47.70;;;;;;5057108;28;20052;-52
2021/01/18 13:03:18;;;;;;;8.63;0.38;;;16.50;48.20;;;;;;5053373;28;20051;-50
2021/01/18 13:05:45;;;;;;;1.20;0.15;;;16.50;48.60;;;;;;5065473;28;20045;-53
2021/01/18 13:08:13;;;;;;;6.53;0.50;;;16.60;48.90;;;;;;5061433;28;20076;-62
2021/01/18 13:10:40;;;;;;;2.15;0.20;;;16.50;49.10;;;;;;5058705;28;20480;-51
2021/01/18 13:13:06;;;;;;;1.63;0.20;;;16.60;49.20;;;;;;5059681;28;20180;-53
2021/01/18 13:15:34;;;;;;;7.28;0.20;;;16.60;49.60;;;;;;5058110;28;20060;-53